createdAt,value
2023-02-14T00:01:25.913Z,7.40
2023-02-14T00:03:53.042Z,7.40
2023-02-14T00:06:19.905Z,7.50
2023-02-14T00:08:49.012Z,7.40
2023-02-14T00:11:15.924Z,7.40
2023-02-14T00:14:05.403Z,7.40
2023-02-14T00:16:32.750Z,7.40
2023-02-14T00:19:04.625Z,7.40
2023-02-14T00:21:39.216Z,7.40
2023-02-14T00:24:21.611Z,7.40
2023-02-14T00:26:49.531Z,7.40
2023-02-14T00:29:26.215Z,7.40
2023-02-14T00:31:56.746Z,7.40
2023-02-14T00:34:24.237Z,7.50
2023-02-14T00:36:51.596Z,7.40
2023-02-14T00:39:19.769Z,7.40
2023-02-14T00:41:47.039Z,7.40
2023-02-14T00:44:18.877Z,7.40
2023-02-14T00:46:45.849Z,7.40
2023-02-14T00:49:14.848Z,7.40
2023-02-14T00:51:41.727Z,7.40
2023-02-14T00:54:11.237Z,7.40
2023-02-14T00:56:38.085Z,7.40
2023-02-14T00:59:08.126Z,7.40
2023-02-14T01:01:35.540Z,7.40
2023-02-14T01:04:09.520Z,7.40
2023-02-14T01:06:36.573Z,7.30
2023-02-14T01:09:04.162Z,7.30
2023-02-14T01:11:32.812Z,7.30
2023-02-14T01:14:00.180Z,7.30
2023-02-14T01:16:28.986Z,7.30
2023-02-14T01:19:01.506Z,7.30
2023-02-14T01:21:30.926Z,7.30
2023-02-14T01:24:00.723Z,7.30
2023-02-14T01:26:27.976Z,7.40
2023-02-14T01:28:57.457Z,7.30
2023-02-14T01:31:27.805Z,7.30
2023-02-14T01:33:57.716Z,7.30
2023-02-14T01:36:43.513Z,7.30
2023-02-14T01:39:15.558Z,7.20
2023-02-14T01:41:48.644Z,7.20
2023-02-14T01:44:16.881Z,7.30
2023-02-14T01:46:46.580Z,7.30
2023-02-14T01:49:41.218Z,7.30
2023-02-14T01:52:21.900Z,7.30
2023-02-14T01:55:02.221Z,7.20
2023-02-14T01:57:45.212Z,7.20
2023-02-14T02:00:31.155Z,7.20
2023-02-14T02:03:01.602Z,7.30
2023-02-14T02:05:30.866Z,7.30
2023-02-14T02:08:01.885Z,7.30
2023-02-14T02:10:28.824Z,7.30
2023-02-14T02:12:58.161Z,7.30
2023-02-14T02:15:28.343Z,7.30
2023-02-14T02:18:26.003Z,7.30
2023-02-14T02:21:37.340Z,7.30
2023-02-14T02:24:04.153Z,7.20
2023-02-14T02:26:46.147Z,7.20
2023-02-14T02:29:18.856Z,7.20
2023-02-14T02:32:04.743Z,7.20
2023-02-14T02:35:05.589Z,7.30
2023-02-14T02:37:38.394Z,7.30
2023-02-14T02:40:36.452Z,7.30
2023-02-14T02:43:40.286Z,7.30
2023-02-14T02:46:35.562Z,7.30
2023-02-14T02:49:47.172Z,7.30
2023-02-14T02:52:46.326Z,7.30
2023-02-14T02:55:27.712Z,7.30
2023-02-14T02:57:58.388Z,7.30
2023-02-14T03:00:32.411Z,7.30
2023-02-14T03:03:21.316Z,7.30
2023-02-14T03:05:48.641Z,7.30
2023-02-14T03:08:17.513Z,7.30
2023-02-14T03:10:46.848Z,7.30
2023-02-14T03:13:23.780Z,7.30
2023-02-14T03:15:56.759Z,7.30
2023-02-14T03:19:28.480Z,7.30
2023-02-14T03:22:15.416Z,7.20
2023-02-14T03:25:08.164Z,7.20
2023-02-14T03:27:45.038Z,7.30
2023-02-14T03:30:21.271Z,7.20
2023-02-14T03:33:03.355Z,7.20
2023-02-14T03:35:46.846Z,7.20
2023-02-14T03:38:15.911Z,7.20
2023-02-14T03:41:02.605Z,7.20
2023-02-14T03:44:05.138Z,7.20
2023-02-14T03:46:41.036Z,7.30
2023-02-14T03:49:13.664Z,7.20
2023-02-14T03:51:47.225Z,7.20
2023-02-14T03:54:19.683Z,7.20
2023-02-14T03:57:08.711Z,7.20
2023-02-14T03:59:37.807Z,7.30
2023-02-14T04:02:13.876Z,7.30
2023-02-14T04:04:45.290Z,7.30
2023-02-14T04:07:19.617Z,7.30
2023-02-14T04:09:46.974Z,7.30
2023-02-14T04:12:14.916Z,7.30
2023-02-14T04:14:41.915Z,7.30
2023-02-14T04:17:29.756Z,7.20
2023-02-14T04:19:56.652Z,7.20
2023-02-14T04:22:23.578Z,7.20
2023-02-14T04:24:52.464Z,7.20
2023-02-14T04:27:19.360Z,7.20
2023-02-14T04:29:50.464Z,7.20
2023-02-14T04:32:23.281Z,7.20
2023-02-14T04:34:50.144Z,7.30
2023-02-14T04:37:19.467Z,7.30
2023-02-14T04:39:46.878Z,7.30
2023-02-14T04:42:16.555Z,7.30
2023-02-14T04:44:43.441Z,7.30
2023-02-14T04:47:10.577Z,7.30
2023-02-14T04:49:37.618Z,7.20
2023-02-14T04:52:07.271Z,7.30
2023-02-14T04:54:36.692Z,7.20
2023-02-14T04:57:03.588Z,7.30
2023-02-14T04:59:30.588Z,7.30
2023-02-14T05:01:57.539Z,7.30
2023-02-14T05:04:24.808Z,7.30
2023-02-14T05:06:56.328Z,7.30
2023-02-14T05:09:23.177Z,7.30
2023-02-14T05:11:50.089Z,7.30
2023-02-14T05:14:19.263Z,7.30
2023-02-14T05:16:46.165Z,7.30
2023-02-14T05:19:15.656Z,7.20
2023-02-14T05:21:45.059Z,7.20
2023-02-14T05:24:16.590Z,7.20
2023-02-14T05:26:43.462Z,7.20
2023-02-14T05:29:10.419Z,7.30
2023-02-14T05:31:39.658Z,7.20
2023-02-14T05:34:06.640Z,7.20
2023-02-14T05:36:33.522Z,7.20
2023-02-14T05:39:00.357Z,7.30
2023-02-14T05:41:29.470Z,7.20
2023-02-14T05:43:56.302Z,7.20
2023-02-14T05:46:25.789Z,7.20
2023-02-14T05:48:55.028Z,7.20
2023-02-14T05:51:21.860Z,7.10
2023-02-14T05:53:48.779Z,7.20
2023-02-14T05:56:15.788Z,7.20
2023-02-14T05:58:44.972Z,7.20
2023-02-14T06:01:11.963Z,7.20
2023-02-14T06:03:41.265Z,7.10
2023-02-14T06:06:12.924Z,7.10
2023-02-14T06:08:41.869Z,7.10
2023-02-14T06:11:08.742Z,7.10
2023-02-14T06:13:40.326Z,7.20
2023-02-14T06:16:09.693Z,7.20
2023-02-14T06:18:36.540Z,7.20
2023-02-14T06:21:06.069Z,7.20
2023-02-14T06:23:35.277Z,7.20
2023-02-14T06:26:02.216Z,7.20
2023-02-14T06:28:29.136Z,7.20
2023-02-14T06:30:59.669Z,7.20
2023-02-14T06:33:29.322Z,7.20
2023-02-14T06:35:56.256Z,7.20
2023-02-14T06:38:23.117Z,7.20
2023-02-14T06:40:50.044Z,7.20
2023-02-14T06:43:17.092Z,7.20
2023-02-14T06:45:46.312Z,7.20
2023-02-14T06:48:15.369Z,7.20
2023-02-14T06:50:47.298Z,7.20
2023-02-14T06:53:19.021Z,7.20
2023-02-14T06:55:46.038Z,7.20
2023-02-14T06:58:13.135Z,7.20
2023-02-14T07:00:40.078Z,7.20
2023-02-14T07:03:09.446Z,7.20
2023-02-14T07:05:37.198Z,7.20
2023-02-14T07:08:04.200Z,7.20
2023-02-14T07:10:34.045Z,7.30
2023-02-14T07:13:01.249Z,7.20
2023-02-14T07:15:32.519Z,7.20
2023-02-14T07:18:01.593Z,7.30
2023-02-14T07:20:28.457Z,7.30
2023-02-14T07:22:55.508Z,7.30
2023-02-14T07:25:24.482Z,7.30
2023-02-14T07:27:53.763Z,7.40
2023-02-14T07:30:20.693Z,7.40
2023-02-14T07:32:47.629Z,7.40
2023-02-14T07:35:15.372Z,7.40
2023-02-14T07:37:42.329Z,7.40
2023-02-14T07:40:14.637Z,7.40
2023-02-14T07:42:44.870Z,7.40
2023-02-14T07:45:21.596Z,7.40
2023-02-14T07:47:51.073Z,7.40
2023-02-14T07:50:18.412Z,7.40
2023-02-14T07:52:46.092Z,7.40
2023-02-14T07:55:13.370Z,7.50
2023-02-14T07:57:42.729Z,7.50
2023-02-14T08:00:10.173Z,7.50
2023-02-14T08:02:39.695Z,7.50
2023-02-14T08:05:09.042Z,7.50
2023-02-14T08:07:36.131Z,7.50
2023-02-14T08:10:05.504Z,7.50
2023-02-14T08:12:50.818Z,7.50
2023-02-14T08:15:49.837Z,7.50
2023-02-14T08:18:20.635Z,7.60
2023-02-14T08:20:49.795Z,7.60
2023-02-14T08:23:20.686Z,7.70
2023-02-14T08:25:51.425Z,7.70
2023-02-14T08:28:22.789Z,7.70
2023-02-14T08:30:53.155Z,7.70
2023-02-14T08:33:20.290Z,7.70
2023-02-14T08:35:47.616Z,7.70
2023-02-14T08:38:19.620Z,7.70
2023-02-14T08:40:49.132Z,7.70
2023-02-14T08:43:16.120Z,7.70
2023-02-14T08:45:45.668Z,7.70
2023-02-14T08:48:13.217Z,7.70
2023-02-14T08:50:40.704Z,7.70
2023-02-14T08:53:12.111Z,7.80
2023-02-14T08:55:39.618Z,7.80
2023-02-14T08:58:09.697Z,7.80
2023-02-14T09:00:36.706Z,7.90
2023-02-14T09:03:03.957Z,7.90
2023-02-14T09:05:35.701Z,7.80
2023-02-14T09:08:03.320Z,7.90
2023-02-14T09:10:30.251Z,7.80
2023-02-14T09:12:57.217Z,7.90
2023-02-14T09:15:24.125Z,7.90
2023-02-14T09:17:51.868Z,8.00
2023-02-14T09:20:18.963Z,8.00
2023-02-14T09:22:47.681Z,7.90
2023-02-14T09:25:15.943Z,7.90
2023-02-14T09:27:45.352Z,7.80
2023-02-14T09:30:15.575Z,7.80
2023-02-14T09:32:42.460Z,7.90
2023-02-14T09:35:27.798Z,7.90
2023-02-14T09:38:13.678Z,8.00
2023-02-14T09:40:40.673Z,8.10
2023-02-14T09:43:13.484Z,8.10
2023-02-14T09:45:43.675Z,8.10
2023-02-14T09:48:22.893Z,8.10
2023-02-14T09:50:54.736Z,8.10
2023-02-14T09:53:26.552Z,8.10
2023-02-14T09:56:21.745Z,8.10
2023-02-14T09:58:48.623Z,8.10
2023-02-14T10:01:28.539Z,8.10
2023-02-14T10:04:27.611Z,8.20
2023-02-14T10:07:09.385Z,8.20
2023-02-14T10:09:57.464Z,8.20
2023-02-14T10:12:42.808Z,8.20
2023-02-14T10:15:18.892Z,8.20
2023-02-14T10:17:53.432Z,8.20
2023-02-14T10:20:34.312Z,8.20
2023-02-14T10:23:22.426Z,8.20
2023-02-14T10:26:01.891Z,8.30
2023-02-14T10:28:49.188Z,8.30
2023-02-14T10:31:31.013Z,8.30
2023-02-14T10:34:17.180Z,8.30
2023-02-14T10:37:06.469Z,8.30
2023-02-14T10:39:39.595Z,8.30
2023-02-14T10:42:43.900Z,8.30
2023-02-14T10:45:32.789Z,8.30
2023-02-14T10:48:20.204Z,8.40
2023-02-14T10:51:04.645Z,8.30
2023-02-14T10:53:46.482Z,8.30
2023-02-14T10:56:19.958Z,8.40
2023-02-14T10:58:50.634Z,8.40
2023-02-14T11:01:18.758Z,8.40
2023-02-14T11:03:55.877Z,8.30
2023-02-14T11:06:25.147Z,8.30
2023-02-14T11:08:52.023Z,8.40
2023-02-14T11:11:26.219Z,8.40
2023-02-14T11:13:53.225Z,8.40
2023-02-14T11:16:29.904Z,8.40
2023-02-14T11:19:15.091Z,8.40
2023-02-14T11:21:44.697Z,8.40
2023-02-14T11:24:39.766Z,8.40
2023-02-14T11:27:12.664Z,8.40
2023-02-14T11:29:41.903Z,8.40
2023-02-14T11:32:26.712Z,8.40
2023-02-14T11:34:59.644Z,8.50
2023-02-14T11:37:34.297Z,8.40
2023-02-14T11:40:05.235Z,8.40
2023-02-14T11:43:17.364Z,8.50
2023-02-14T11:45:49.192Z,8.50
2023-02-14T11:48:37.139Z,8.50
2023-02-14T11:51:09.273Z,8.40
2023-02-14T11:54:00.526Z,8.50
2023-02-14T11:56:43.269Z,8.50
2023-02-14T11:59:12.583Z,8.40
2023-02-14T12:01:39.764Z,8.40
2023-02-14T12:04:21.156Z,8.40
2023-02-14T12:06:48.194Z,8.50
2023-02-14T12:09:27.171Z,8.50
2023-02-14T12:11:58.090Z,8.40
2023-02-14T12:14:36.194Z,8.50
2023-02-14T12:17:11.694Z,8.50
2023-02-14T12:19:48.886Z,8.50
2023-02-14T12:22:22.383Z,8.50
2023-02-14T12:25:22.908Z,8.50
2023-02-14T12:28:04.010Z,8.50
2023-02-14T12:30:34.953Z,8.50
2023-02-14T12:33:02.027Z,8.50
2023-02-14T12:35:47.277Z,8.50
2023-02-14T12:38:37.263Z,8.50
2023-02-14T12:41:06.894Z,8.50
2023-02-14T12:43:51.413Z,8.40
2023-02-14T12:46:46.566Z,8.40
2023-02-14T12:49:31.981Z,8.40
2023-02-14T12:52:13.395Z,8.50
2023-02-14T12:55:00.625Z,8.50
2023-02-14T12:57:43.234Z,8.50
2023-02-14T13:00:11.536Z,8.60
2023-02-14T13:03:15.087Z,8.50
2023-02-14T13:05:59.384Z,8.50
2023-02-14T13:08:29.381Z,8.50
2023-02-14T13:11:08.092Z,8.50
2023-02-14T13:14:04.352Z,8.50
2023-02-14T13:16:44.696Z,8.60
2023-02-14T13:19:33.126Z,8.50
2023-02-14T13:22:04.271Z,8.50
2023-02-14T13:24:38.304Z,8.50
2023-02-14T13:27:08.653Z,8.50
2023-02-14T13:29:53.705Z,8.40
2023-02-14T13:32:30.639Z,8.40
2023-02-14T13:34:58.438Z,8.30
2023-02-14T13:37:30.578Z,8.40
2023-02-14T13:40:06.301Z,8.50
2023-02-14T13:42:48.781Z,8.40
2023-02-14T13:45:42.254Z,8.50
2023-02-14T13:48:14.265Z,8.50
2023-02-14T13:51:04.803Z,8.40
2023-02-14T13:53:46.373Z,8.30
2023-02-14T13:56:13.331Z,8.20
2023-02-14T13:58:53.272Z,8.10
2023-02-14T14:01:50.011Z,8.20
2023-02-14T14:04:30.097Z,8.20
2023-02-14T14:07:03.018Z,8.20
2023-02-14T14:09:42.370Z,8.20
2023-02-14T14:12:27.914Z,8.20
2023-02-14T14:15:06.848Z,8.10
2023-02-14T14:17:37.792Z,8.20
2023-02-14T14:20:16.001Z,8.10
2023-02-14T14:23:00.441Z,8.10
2023-02-14T14:25:30.600Z,8.20
2023-02-14T14:28:00.718Z,8.10
2023-02-14T14:30:33.580Z,8.10
2023-02-14T14:33:37.655Z,8.10
2023-02-14T14:36:21.321Z,8.20
2023-02-14T14:38:52.278Z,8.20
2023-02-14T14:41:26.296Z,8.10
2023-02-14T14:43:57.952Z,8.10
2023-02-14T14:46:25.095Z,8.10
2023-02-14T14:48:56.739Z,8.00
2023-02-14T14:51:29.227Z,8.10
2023-02-14T14:54:04.821Z,8.10
2023-02-14T14:56:40.771Z,8.10
2023-02-14T14:59:30.973Z,8.10
2023-02-14T15:02:00.831Z,8.10
2023-02-14T15:04:31.398Z,8.10
2023-02-14T15:07:23.895Z,8.10
2023-02-14T15:09:51.400Z,8.10
2023-02-14T15:12:43.949Z,8.10
2023-02-14T15:15:13.564Z,8.00
2023-02-14T15:17:42.400Z,8.00
2023-02-14T15:20:24.466Z,8.00
2023-02-14T15:22:52.792Z,8.00
2023-02-14T15:25:33.172Z,8.00
2023-02-14T15:28:02.778Z,8.00
2023-02-14T15:30:37.209Z,7.90
2023-02-14T15:33:06.439Z,7.90
2023-02-14T15:35:38.889Z,7.90
2023-02-14T15:38:14.134Z,7.90
2023-02-14T15:40:43.633Z,7.80
2023-02-14T15:43:22.009Z,7.80
2023-02-14T15:45:53.476Z,7.80
2023-02-14T15:48:29.479Z,7.80
2023-02-14T15:50:59.565Z,7.80
2023-02-14T15:53:44.138Z,7.70
2023-02-14T15:56:20.359Z,7.70
2023-02-14T15:58:50.524Z,7.60
2023-02-14T16:01:21.734Z,7.60
2023-02-14T16:03:57.301Z,7.60
2023-02-14T16:06:34.824Z,7.50
2023-02-14T16:09:03.182Z,7.50
2023-02-14T16:11:35.445Z,7.50
2023-02-14T16:14:28.698Z,7.50
2023-02-14T16:17:10.825Z,7.50
2023-02-14T16:19:45.753Z,7.60
2023-02-14T16:22:25.369Z,7.50
2023-02-14T16:24:52.317Z,7.50
2023-02-14T16:27:19.486Z,7.50
2023-02-14T16:29:48.631Z,7.50
2023-02-14T16:32:27.099Z,7.50
2023-02-14T16:34:57.337Z,7.40
2023-02-14T16:37:28.902Z,7.50
2023-02-14T16:39:59.384Z,7.50
2023-02-14T16:42:26.520Z,7.50
2023-02-14T16:44:55.958Z,7.40
2023-02-14T16:47:27.681Z,7.40
2023-02-14T16:49:54.683Z,7.40
2023-02-14T16:52:25.555Z,7.40
2023-02-14T16:54:55.169Z,7.40
2023-02-14T16:57:42.968Z,7.40
2023-02-14T17:00:12.965Z,7.40
2023-02-14T17:02:40.722Z,7.40
2023-02-14T17:05:11.517Z,7.40
2023-02-14T17:07:42.272Z,7.40
2023-02-14T17:10:18.210Z,7.30
2023-02-14T17:12:47.519Z,7.30
2023-02-14T17:15:18.629Z,7.20
2023-02-14T17:17:47.160Z,7.30
2023-02-14T17:20:14.864Z,7.30
2023-02-14T17:22:45.268Z,7.30
2023-02-14T17:25:12.352Z,7.20
2023-02-14T17:27:43.818Z,7.20
2023-02-14T17:30:12.640Z,7.20
2023-02-14T17:32:42.095Z,7.20
2023-02-14T17:35:09.446Z,7.20
2023-02-14T17:37:36.805Z,7.20
2023-02-14T17:40:05.932Z,7.20
2023-02-14T17:42:35.937Z,7.20
2023-02-14T17:45:06.038Z,7.10
2023-02-14T17:47:34.066Z,7.20
2023-02-14T17:50:03.411Z,7.20
2023-02-14T17:52:31.006Z,7.20
2023-02-14T17:55:00.129Z,7.20
2023-02-14T17:57:27.051Z,7.20
2023-02-14T17:59:53.925Z,7.20
2023-02-14T18:02:20.817Z,7.20
2023-02-14T18:04:50.000Z,7.10
2023-02-14T18:07:16.881Z,7.20
2023-02-14T18:09:43.833Z,7.10
2023-02-14T18:12:15.076Z,7.10
2023-02-14T18:14:42.390Z,7.10
2023-02-14T18:17:09.380Z,7.10
2023-02-14T18:19:38.815Z,7.20
2023-02-14T18:22:08.049Z,7.20
2023-02-14T18:24:37.125Z,7.20
2023-02-14T18:27:06.147Z,7.20
2023-02-14T18:29:33.694Z,7.20
2023-02-14T18:32:00.679Z,7.10
2023-02-14T18:34:28.158Z,7.10
2023-02-14T18:36:55.556Z,7.00
2023-02-14T18:39:23.413Z,7.00
2023-02-14T18:41:52.594Z,7.00
2023-02-14T18:44:20.856Z,7.00
2023-02-14T18:46:49.905Z,7.00
2023-02-14T18:49:16.813Z,7.00
2023-02-14T18:51:43.819Z,7.00
2023-02-14T18:54:13.203Z,7.00
2023-02-14T18:56:40.447Z,6.90
2023-02-14T18:59:13.278Z,7.00
2023-02-14T19:01:44.884Z,6.90
2023-02-14T19:04:17.892Z,7.00
2023-02-14T19:06:44.981Z,7.00
2023-02-14T19:09:14.321Z,7.00
2023-02-14T19:11:44.409Z,7.00
2023-02-14T19:14:13.272Z,6.90
2023-02-14T19:16:50.429Z,6.90
2023-02-14T19:19:20.364Z,6.90
2023-02-14T19:21:47.252Z,6.90
2023-02-14T19:24:16.705Z,6.80
2023-02-14T19:26:46.672Z,6.80
2023-02-14T19:29:16.121Z,6.80
2023-02-14T19:31:48.392Z,6.80
2023-02-14T19:34:29.317Z,6.80
2023-02-14T19:37:00.650Z,6.80
2023-02-14T19:39:32.281Z,6.80
2023-02-14T19:42:00.302Z,6.90
2023-02-14T19:44:32.472Z,6.90
2023-02-14T19:47:19.286Z,6.90
2023-02-14T19:49:53.807Z,6.90
2023-02-14T19:52:26.949Z,6.90
2023-02-14T19:54:55.890Z,6.90
2023-02-14T19:57:23.015Z,7.00
2023-02-14T19:59:50.015Z,6.90
2023-02-14T20:02:19.929Z,6.90
2023-02-14T20:04:46.943Z,6.90
2023-02-14T20:07:17.344Z,6.90
2023-02-14T20:09:46.653Z,6.90
2023-02-14T20:12:15.620Z,6.90
2023-02-14T20:14:51.408Z,6.90
2023-02-14T20:17:19.547Z,6.80
2023-02-14T20:19:46.582Z,6.70
2023-02-14T20:22:15.757Z,6.70
2023-02-14T20:24:42.760Z,6.70
2023-02-14T20:27:09.793Z,6.70
2023-02-14T20:29:39.049Z,6.70
2023-02-14T20:32:06.279Z,6.70
2023-02-14T20:34:35.941Z,6.70
2023-02-14T20:37:02.824Z,6.70
2023-02-14T20:39:32.584Z,6.70
2023-02-14T20:42:00.010Z,6.70
2023-02-14T20:44:27.664Z,6.70
2023-02-14T20:46:55.792Z,6.70
2023-02-14T20:49:24.965Z,6.70
2023-02-14T20:51:52.779Z,6.70
2023-02-14T20:54:25.531Z,6.60
2023-02-14T20:56:52.870Z,6.60
2023-02-14T20:59:26.396Z,6.60
2023-02-14T21:01:54.717Z,6.60
2023-02-14T21:04:22.175Z,6.60
2023-02-14T21:06:51.404Z,6.60
2023-02-14T21:09:20.423Z,6.60
2023-02-14T21:11:47.343Z,6.60
2023-02-14T21:14:14.265Z,6.60
2023-02-14T21:16:43.240Z,6.60
2023-02-14T21:19:12.481Z,6.60
2023-02-14T21:21:39.869Z,6.60
2023-02-14T21:24:17.264Z,6.60
2023-02-14T21:26:45.050Z,6.60
2023-02-14T21:29:12.132Z,6.50
2023-02-14T21:31:39.788Z,6.50
2023-02-14T21:34:06.974Z,6.50
2023-02-14T21:36:37.315Z,6.50
2023-02-14T21:39:05.909Z,6.40
2023-02-14T21:41:33.829Z,6.40
2023-02-14T21:44:04.228Z,6.40
2023-02-14T21:46:38.385Z,6.30
2023-02-14T21:49:24.297Z,6.30
2023-02-14T21:51:51.555Z,6.30
2023-02-14T21:54:20.987Z,6.30
2023-02-14T21:56:52.611Z,6.30
2023-02-14T21:59:19.464Z,6.20
2023-02-14T22:01:46.371Z,6.20
2023-02-14T22:04:15.509Z,6.10
2023-02-14T22:06:44.810Z,6.00
2023-02-14T22:09:13.717Z,6.10
2023-02-14T22:11:40.863Z,6.00
2023-02-14T22:14:07.797Z,6.00
2023-02-14T22:16:38.055Z,6.00
2023-02-14T22:19:08.253Z,5.90
2023-02-14T22:21:35.584Z,5.90
2023-02-14T22:24:02.604Z,5.90
2023-02-14T22:26:35.390Z,5.90
2023-02-14T22:29:03.043Z,5.80
2023-02-14T22:31:34.145Z,5.80
2023-02-14T22:34:01.323Z,5.80
2023-02-14T22:36:28.287Z,5.80
2023-02-14T22:38:55.345Z,5.80
2023-02-14T22:41:24.436Z,5.80
2023-02-14T22:43:52.628Z,5.70
2023-02-14T22:46:28.020Z,5.70
2023-02-14T22:48:56.337Z,5.70
2023-02-14T22:51:29.172Z,5.70
2023-02-14T22:53:59.280Z,5.70
2023-02-14T22:56:28.832Z,5.70
2023-02-14T22:59:01.203Z,5.70
2023-02-14T23:01:30.485Z,5.70
2023-02-14T23:03:59.233Z,5.70
2023-02-14T23:06:27.718Z,5.60
2023-02-14T23:08:55.349Z,5.70
2023-02-14T23:11:28.409Z,5.60
2023-02-14T23:14:14.892Z,5.60
2023-02-14T23:17:00.759Z,5.60
2023-02-14T23:19:49.692Z,5.60
2023-02-14T23:22:22.972Z,5.60
2023-02-14T23:24:54.778Z,5.60
2023-02-14T23:27:24.446Z,5.60
2023-02-14T23:29:51.325Z,5.60
2023-02-14T23:32:20.787Z,5.60
2023-02-14T23:34:50.131Z,5.60
2023-02-14T23:37:20.763Z,5.50
2023-02-14T23:39:50.241Z,5.50
2023-02-14T23:42:19.795Z,5.50
2023-02-14T23:44:51.063Z,5.50
2023-02-14T23:47:46.075Z,5.50
2023-02-14T23:50:15.567Z,5.50
2023-02-14T23:52:44.855Z,5.50
2023-02-14T23:55:12.360Z,5.50
2023-02-14T23:57:41.639Z,5.50
